Time;durP1;ratioP1;P1;durP2;ratioP2;P2;SDS_P1;SDS_P2;PMS_P1;PMS_P2;Temp;Humidity;BMP_temperature;BMP_pressure;BME280_temperature;BME280_humidity;BME280_pressure;Samples;Min_cycle;Max_cycle;Signal;HPM_P1;HPM_P2
2021/12/01 00:00:17;;;;;;;1.93;1.83;;;;;;;;;;5079066;28;20429;-78
2021/12/01 00:02:44;;;;;;;1.90;1.80;;;;;;;;;;5061966;28;20437;-79
2021/12/01 00:05:11;;;;;;;1.90;1.80;;;;;;;;;;5057991;28;20468;-79
2021/12/01 00:07:39;;;;;;;1.63;1.53;;;;;;;;;;5057895;28;20484;-79
2021/12/01 00:10:09;;;;;;;1.50;1.50;;;;;;;;;;5058814;28;20441;-78
2021/12/01 00:12:36;;;;;;;1.60;1.60;;;;;;;;;;5058123;28;20474;-77
2021/12/01 00:15:03;;;;;;;1.67;1.57;;;;;;;;;;5058774;28;20465;-78
2021/12/01 00:17:30;;;;;;;2.03;1.93;;;;;;;;;;5057087;28;20460;-78
2021/12/01 00:19:59;;;;;;;1.97;1.87;;;;;;;;;;5057100;28;20937;-77
2021/12/01 00:22:26;;;;;;;5.33;1.60;;;;;;;;;;5057202;28;20441;-78
2021/12/01 00:24:53;;;;;;;1.37;1.17;;;;;;;;;;5057154;28;20457;-78
2021/12/01 00:27:22;;;;;;;1.77;1.67;;;;;;;;;;5058944;28;20882;-77
2021/12/01 00:29:50;;;;;;;1.50;1.43;;;;;;;;;;5058654;28;20441;-77
2021/12/01 00:32:17;;;;;;;1.60;1.60;;;;;;;;;;5065104;28;20941;-78
2021/12/01 00:34:44;;;;;;;1.80;1.70;;;;;;;;;;5057524;28;20666;-79
2021/12/01 00:37:11;;;;;;;1.90;1.80;;;;;;;;;;5057688;28;20437;-79
2021/12/01 00:39:38;;;;;;;1.60;1.60;;;;;;;;;;5057225;28;20450;-78
2021/12/01 00:42:06;;;;;;;1.80;1.70;;;;;;;;;;5057894;28;20454;-80
2021/12/01 00:44:36;;;;;;;1.87;1.77;;;;;;;;;;5055929;28;20480;-78
2021/12/01 00:47:06;;;;;;;1.50;1.50;;;;;;;;;;5056809;28;20604;-78
2021/12/01 00:49:34;;;;;;;1.60;1.50;;;;;;;;;;5057045;28;20872;-78
2021/12/01 00:52:01;;;;;;;1.43;1.43;;;;;;;;;;5058382;28;20791;-79
2021/12/01 00:54:28;;;;;;;1.40;1.40;;;;;;;;;;5056476;28;20469;-78
2021/12/01 00:56:55;;;;;;;1.60;1.50;;;;;;;;;;5056025;28;20460;-78
2021/12/01 00:59:22;;;;;;;1.40;1.30;;;;;;;;;;5055343;28;20994;-77
2021/12/01 01:01:51;;;;;;;1.17;1.17;;;;;;;;;;5064383;28;20444;-79
2021/12/01 01:04:18;;;;;;;1.80;1.50;;;;;;;;;;5074411;28;20452;-77
2021/12/01 01:06:45;;;;;;;1.37;1.37;;;;;;;;;;5076672;28;20516;-79
2021/12/01 01:09:12;;;;;;;1.17;1.17;;;;;;;;;;5076670;28;20502;-80
2021/12/01 01:17:13;;;;;;;1.63;1.60;;;;;;;;;;5076734;28;20478;-78
2021/12/01 01:19:40;;;;;;;1.27;1.27;;;;;;;;;;5074479;28;20429;-80
2021/12/01 01:22:08;;;;;;;1.10;1.10;;;;;;;;;;5078368;28;20428;-79
2021/12/01 01:24:36;;;;;;;3.37;1.70;;;;;;;;;;5078625;28;20828;-79
2021/12/01 01:27:03;;;;;;;1.40;1.40;;;;;;;;;;5081636;28;20489;-78
2021/12/01 01:29:34;;;;;;;1.27;1.27;;;;;;;;;;5084698;28;20440;-79
2021/12/01 01:32:01;;;;;;;1.30;1.30;;;;;;;;;;5080270;28;20442;-78
2021/12/01 01:34:30;;;;;;;1.60;1.60;;;;;;;;;;5081544;28;20468;-79
2021/12/01 01:36:57;;;;;;;1.50;1.50;;;;;;;;;;5082296;28;20443;-77
2021/12/01 01:39:24;;;;;;;1.63;1.53;;;;;;;;;;5077244;28;20425;-79
2021/12/01 01:41:52;;;;;;;1.40;1.40;;;;;;;;;;5077803;28;20882;-78
2021/12/01 01:44:19;;;;;;;1.60;1.60;;;;;;;;;;5076763;28;20857;-78
2021/12/01 01:46:46;;;;;;;2.00;1.97;;;;;;;;;;5082037;28;20454;-78
2021/12/01 01:49:17;;;;;;;1.83;1.83;;;;;;;;;;5088883;28;20449;-78
2021/12/01 01:51:46;;;;;;;2.20;1.87;;;;;;;;;;5089140;28;20449;-77
2021/12/01 01:54:13;;;;;;;1.70;1.60;;;;;;;;;;5089753;28;21092;-77
2021/12/01 01:56:41;;;;;;;2.20;2.10;;;;;;;;;;5091091;28;20454;-78
2021/12/01 01:59:08;;;;;;;2.57;2.37;;;;;;;;;;5091638;28;20441;-78
2021/12/01 02:04:23;;;;;;;2.17;2.07;;;;;;;;;;5065014;28;20471;-76
2021/12/01 02:06:51;;;;;;;2.00;1.90;;;;;;;;;;5060520;28;20965;-78
2021/12/01 02:09:20;;;;;;;2.00;1.90;;;;;;;;;;5056169;28;20481;-78
2021/12/01 02:11:48;;;;;;;2.10;2.00;;;;;;;;;;5057236;28;20433;-80
2021/12/01 02:14:16;;;;;;;1.70;1.70;;;;;;;;;;5056520;28;20468;-79
2021/12/01 02:16:43;;;;;;;2.77;2.57;;;;;;;;;;5056952;28;20460;-79
2021/12/01 02:19:10;;;;;;;1.93;1.90;;;;;;;;;;5056054;28;20591;-79
2021/12/01 02:21:39;;;;;;;2.27;2.10;;;;;;;;;;5055941;28;20455;-79
2021/12/01 02:24:07;;;;;;;2.07;1.97;;;;;;;;;;5055508;28;20965;-79
2021/12/01 02:26:35;;;;;;;2.20;2.10;;;;;;;;;;5056490;28;20445;-81
2021/12/01 02:29:04;;;;;;;2.03;1.93;;;;;;;;;;5055813;28;20478;-79
2021/12/01 02:31:34;;;;;;;2.00;1.90;;;;;;;;;;5055848;28;20446;-79
2021/12/01 02:34:01;;;;;;;2.77;2.57;;;;;;;;;;5056134;28;20470;-76
2021/12/01 02:36:28;;;;;;;2.30;2.20;;;;;;;;;;5054762;28;20436;-79
2021/12/01 02:38:57;;;;;;;2.70;2.50;;;;;;;;;;5054349;28;20769;-78
2021/12/01 02:41:27;;;;;;;1.90;1.80;;;;;;;;;;5055767;28;20472;-78
2021/12/01 02:43:55;;;;;;;2.00;1.90;;;;;;;;;;5053662;28;20984;-78
2021/12/01 02:46:22;;;;;;;3.00;1.90;;;;;;;;;;5053608;28;20449;-79
2021/12/01 02:48:49;;;;;;;1.90;1.80;;;;;;;;;;5054920;28;20465;-81
2021/12/01 02:51:18;;;;;;;1.80;1.70;;;;;;;;;;5054616;28;20430;-80
2021/12/01 02:53:45;;;;;;;1.67;1.60;;;;;;;;;;5054832;28;20838;-81
2021/12/01 02:56:13;;;;;;;1.63;1.63;;;;;;;;;;5055442;28;20445;-78
2021/12/01 02:58:41;;;;;;;1.93;1.83;;;;;;;;;;5056639;28;20437;-80
2021/12/01 03:01:09;;;;;;;1.50;1.50;;;;;;;;;;5059454;28;20444;-79
2021/12/01 03:03:36;;;;;;;1.67;1.67;;;;;;;;;;5076342;28;20460;-78
2021/12/01 03:06:03;;;;;;;1.57;1.57;;;;;;;;;;5076982;28;20444;-79
2021/12/01 03:08:31;;;;;;;1.80;1.80;;;;;;;;;;5078072;28;20515;-79
2021/12/01 03:10:58;;;;;;;1.50;1.40;;;;;;;;;;5076677;28;20429;-80
2021/12/01 03:13:27;;;;;;;1.43;1.43;;;;;;;;;;5079711;28;20440;-79
2021/12/01 03:15:54;;;;;;;1.67;1.60;;;;;;;;;;5094278;28;20448;-76
2021/12/01 03:18:21;;;;;;;1.40;1.40;;;;;;;;;;5087099;28;20466;-78
2021/12/01 03:20:49;;;;;;;1.77;1.67;;;;;;;;;;5080579;28;20731;-76
2021/12/01 03:23:16;;;;;;;1.60;1.50;;;;;;;;;;5090534;28;20527;-80
2021/12/01 03:25:44;;;;;;;2.00;1.80;;;;;;;;;;5089192;28;20441;-79
2021/12/01 03:28:11;;;;;;;1.53;1.53;;;;;;;;;;5083872;28;20476;-77
2021/12/01 03:30:40;;;;;;;1.47;1.47;;;;;;;;;;5081175;28;20427;-78
2021/12/01 03:33:08;;;;;;;1.57;1.57;;;;;;;;;;5074669;28;20452;-78
2021/12/01 03:35:35;;;;;;;1.73;1.60;;;;;;;;;;5074166;28;20459;-80
2021/12/01 03:38:02;;;;;;;1.40;1.30;;;;;;;;;;5074521;28;20848;-79
2021/12/01 03:40:29;;;;;;;1.70;1.60;;;;;;;;;;5075290;28;20444;-78
2021/12/01 03:42:56;;;;;;;1.93;1.83;;;;;;;;;;5075869;28;20943;-79
2021/12/01 03:45:23;;;;;;;1.70;1.60;;;;;;;;;;5078531;28;20456;-77
2021/12/01 03:47:52;;;;;;;1.87;1.77;;;;;;;;;;5079016;28;20476;-79
2021/12/01 03:50:19;;;;;;;2.00;1.90;;;;;;;;;;5079101;28;20444;-79
2021/12/01 03:52:46;;;;;;;1.63;1.63;;;;;;;;;;5079190;28;20463;-79
2021/12/01 03:55:13;;;;;;;1.60;1.60;;;;;;;;;;5079284;28;20475;-79
2021/12/01 03:57:41;;;;;;;1.67;1.67;;;;;;;;;;5078732;28;20452;-80
2021/12/01 04:00:09;;;;;;;2.13;1.93;;;;;;;;;;5079187;28;20486;-79
2021/12/01 04:02:36;;;;;;;1.70;1.70;;;;;;;;;;5063322;28;20446;-77
2021/12/01 04:05:05;;;;;;;1.83;1.73;;;;;;;;;;5057920;28;21011;-81
2021/12/01 04:07:32;;;;;;;1.90;1.80;;;;;;;;;;5057999;28;20445;-79
2021/12/01 04:10:00;;;;;;;3.83;1.60;;;;;;;;;;5057680;28;20914;-81
2021/12/01 04:12:28;;;;;;;1.90;1.80;;;;;;;;;;5058576;28;20445;-79
2021/12/01 04:14:55;;;;;;;1.63;1.53;;;;;;;;;;5058198;28;20513;-78
2021/12/01 04:17:22;;;;;;;1.97;1.87;;;;;;;;;;5058566;28;20505;-79
2021/12/01 04:19:49;;;;;;;1.70;1.60;;;;;;;;;;5058403;28;20802;-78
2021/12/01 04:22:17;;;;;;;1.90;1.80;;;;;;;;;;5057677;28;20445;-79
2021/12/01 04:24:44;;;;;;;1.80;1.70;;;;;;;;;;5057302;28;20877;-78
2021/12/01 04:27:12;;;;;;;1.70;1.70;;;;;;;;;;5057835;28;20453;-80
2021/12/01 04:29:39;;;;;;;1.90;1.80;;;;;;;;;;5057775;28;20516;-79
2021/12/01 04:32:08;;;;;;;2.00;1.90;;;;;;;;;;5057753;28;20507;-78
2021/12/01 04:34:35;;;;;;;1.70;1.60;;;;;;;;;;5057826;28;20466;-80
2021/12/01 04:37:02;;;;;;;2.00;1.90;;;;;;;;;;5057842;28;20811;-79
2021/12/01 04:39:31;;;;;;;1.50;1.50;;;;;;;;;;5057833;28;20484;-79
2021/12/01 04:42:04;;;;;;;2.33;1.83;;;;;;;;;;5057469;28;20440;-79
2021/12/01 04:44:31;;;;;;;2.10;2.00;;;;;;;;;;5057271;28;20480;-79
2021/12/01 04:47:00;;;;;;;1.83;1.73;;;;;;;;;;5057472;28;20442;-79
2021/12/01 04:49:27;;;;;;;2.10;2.00;;;;;;;;;;5058089;28;20469;-78
2021/12/01 04:51:56;;;;;;;2.00;1.90;;;;;;;;;;5057229;28;20450;-80
2021/12/01 04:54:23;;;;;;;2.73;2.30;;;;;;;;;;5057101;28;20469;-79
2021/12/01 04:56:52;;;;;;;2.07;1.97;;;;;;;;;;5057682;28;20457;-79
2021/12/01 04:59:20;;;;;;;1.80;1.80;;;;;;;;;;5057868;28;20499;-79
2021/12/01 05:01:47;;;;;;;2.40;2.20;;;;;;;;;;5065870;28;20985;-79
2021/12/01 05:04:14;;;;;;;1.67;1.57;;;;;;;;;;5076675;28;20461;-79
2021/12/01 05:06:42;;;;;;;1.97;1.87;;;;;;;;;;5077299;28;20468;-79
2021/12/01 05:09:10;;;;;;;2.30;2.20;;;;;;;;;;5076936;28;20504;-80
2021/12/01 05:11:37;;;;;;;5.70;4.80;;;;;;;;;;5077336;28;20476;-79
2021/12/01 05:14:06;;;;;;;2.43;2.33;;;;;;;;;;5076675;28;20480;-80
2021/12/01 05:16:35;;;;;;;1.90;1.80;;;;;;;;;;5076881;28;20451;-78
2021/12/01 05:19:02;;;;;;;2.43;2.30;;;;;;;;;;5077115;28;20569;-78
2021/12/01 05:21:29;;;;;;;1.83;1.73;;;;;;;;;;5076296;28;20436;-79
2021/12/01 05:23:56;;;;;;;1.83;1.73;;;;;;;;;;5076411;28;20468;-78
2021/12/01 05:26:23;;;;;;;1.43;1.40;;;;;;;;;;5076910;28;20445;-81
2021/12/01 05:28:50;;;;;;;2.00;1.90;;;;;;;;;;5076352;28;20821;-78
2021/12/01 05:31:18;;;;;;;1.50;1.40;;;;;;;;;;5076251;28;20521;-81
2021/12/01 05:33:45;;;;;;;1.70;1.60;;;;;;;;;;5076119;28;20473;-79
2021/12/01 05:36:13;;;;;;;1.70;1.60;;;;;;;;;;5076534;28;20433;-79
2021/12/01 05:38:40;;;;;;;1.60;1.60;;;;;;;;;;5076651;28;20433;-79
2021/12/01 05:41:07;;;;;;;1.80;1.80;;;;;;;;;;5076005;28;20514;-78
2021/12/01 05:43:34;;;;;;;1.33;1.33;;;;;;;;;;5075910;28;20502;-78
2021/12/01 05:46:01;;;;;;;1.40;1.30;;;;;;;;;;5074816;28;20437;-80
2021/12/01 05:48:30;;;;;;;1.80;1.70;;;;;;;;;;5076013;28;20479;-79
2021/12/01 05:50:57;;;;;;;1.67;1.57;;;;;;;;;;5076223;28;20449;-78
2021/12/01 05:53:24;;;;;;;1.43;1.40;;;;;;;;;;5075785;28;20460;-80
2021/12/01 05:55:52;;;;;;;1.50;1.50;;;;;;;;;;5075100;28;20456;-81
2021/12/01 05:58:19;;;;;;;3.20;1.30;;;;;;;;;;5076847;28;20468;-78
2021/12/01 06:00:46;;;;;;;1.97;1.77;;;;;;;;;;5076769;28;20452;-80
2021/12/01 06:03:13;;;;;;;1.33;1.33;;;;;;;;;;5054911;28;20521;-79
2021/12/01 06:05:43;;;;;;;1.43;1.33;;;;;;;;;;5055187;28;20472;-79
2021/12/01 06:08:10;;;;;;;1.33;1.23;;;;;;;;;;5054545;28;20867;-79
2021/12/01 06:10:38;;;;;;;1.27;1.27;;;;;;;;;;5055663;28;20445;-81
2021/12/01 06:13:05;;;;;;;1.20;1.20;;;;;;;;;;5055844;28;20846;-79
2021/12/01 06:15:33;;;;;;;1.47;1.47;;;;;;;;;;5056118;28;20953;-79
2021/12/01 06:18:00;;;;;;;1.33;1.33;;;;;;;;;;5055599;28;20441;-79
2021/12/01 06:20:27;;;;;;;1.27;1.27;;;;;;;;;;5056023;28;20451;-79
2021/12/01 06:22:56;;;;;;;1.37;1.37;;;;;;;;;;5055651;28;20436;-78
2021/12/01 06:25:23;;;;;;;1.17;1.10;;;;;;;;;;5056243;28;20826;-79
2021/12/01 06:27:50;;;;;;;1.70;1.50;;;;;;;;;;5057116;28;20446;-78
2021/12/01 06:30:17;;;;;;;1.30;1.30;;;;;;;;;;5068390;28;20906;-80
2021/12/01 06:32:44;;;;;;;1.97;1.87;;;;;;;;;;5067940;28;20436;-78
2021/12/01 06:35:11;;;;;;;1.30;1.20;;;;;;;;;;5066425;28;20539;-79
2021/12/01 06:37:39;;;;;;;1.40;1.40;;;;;;;;;;5063065;28;20455;-79
2021/12/01 06:40:08;;;;;;;1.50;1.13;;;;;;;;;;5063642;28;20452;-79
2021/12/01 06:42:36;;;;;;;1.40;1.40;;;;;;;;;;5069888;28;20445;-80
2021/12/01 06:45:05;;;;;;;6.83;6.00;;;;;;;;;;5058645;28;20465;-78
2021/12/01 06:47:33;;;;;;;1.10;1.10;;;;;;;;;;5059321;28;20442;-80
2021/12/01 06:50:01;;;;;;;1.33;1.33;;;;;;;;;;5067419;28;20485;-80
2021/12/01 06:52:28;;;;;;;3.23;3.03;;;;;;;;;;5061301;28;20835;-76
2021/12/01 06:54:55;;;;;;;8.20;7.50;;;;;;;;;;5060495;28;20496;-79
2021/12/01 06:57:24;;;;;;;4.47;4.17;;;;;;;;;;5070972;28;20511;-79
2021/12/01 06:59:51;;;;;;;3.90;3.60;;;;;;;;;;5065669;28;20437;-79
2021/12/01 07:02:18;;;;;;;1.67;1.67;;;;;;;;;;5066274;28;20450;-79
2021/12/01 07:04:45;;;;;;;1.90;1.43;;;;;;;;;;5076854;28;20471;-77
2021/12/01 07:07:12;;;;;;;1.33;1.23;;;;;;;;;;5067920;28;20991;-80
2021/12/01 07:09:40;;;;;;;1.23;1.10;;;;;;;;;;5075997;28;20476;-78
2021/12/01 07:12:07;;;;;;;2.10;1.53;;;;;;;;;;5075847;28;20452;-79
2021/12/01 07:14:35;;;;;;;1.70;1.50;;;;;;;;;;5074795;28;20530;-80
2021/12/01 07:17:02;;;;;;;1.47;1.43;;;;;;;;;;5075284;28;20801;-79
2021/12/01 07:19:29;;;;;;;1.50;1.40;;;;;;;;;;5078139;28;20440;-78
2021/12/01 07:21:56;;;;;;;1.17;1.17;;;;;;;;;;5076798;28;20448;-80
2021/12/01 07:24:23;;;;;;;3.40;3.10;;;;;;;;;;5069374;28;20468;-77
2021/12/01 07:26:50;;;;;;;2.03;1.93;;;;;;;;;;5072638;28;20452;-81
2021/12/01 07:29:18;;;;;;;1.30;1.30;;;;;;;;;;5080197;28;20475;-78
2021/12/01 07:31:48;;;;;;;2.70;2.50;;;;;;;;;;5077736;28;20451;-79
2021/12/01 07:34:15;;;;;;;1.20;1.20;;;;;;;;;;5079093;28;20465;-80
2021/12/01 07:36:42;;;;;;;1.00;1.00;;;;;;;;;;5079403;28;20441;-78
2021/12/01 07:39:09;;;;;;;1.20;1.20;;;;;;;;;;5080031;28;20443;-79
2021/12/01 07:41:36;;;;;;;1.40;1.30;;;;;;;;;;5079207;28;20471;-78
2021/12/01 07:44:04;;;;;;;1.70;1.60;;;;;;;;;;5078305;28;20817;-80
2021/12/01 07:46:31;;;;;;;1.33;1.23;;;;;;;;;;5078711;28;20444;-79
2021/12/01 07:48:59;;;;;;;1.07;1.07;;;;;;;;;;5078926;28;20464;-78
2021/12/01 07:51:26;;;;;;;1.30;1.30;;;;;;;;;;5079462;28;20471;-79
2021/12/01 07:53:55;;;;;;;1.20;1.20;;;;;;;;;;5077308;28;20514;-79
2021/12/01 07:56:22;;;;;;;1.07;0.90;;;;;;;;;;5073711;28;20465;-79
2021/12/01 07:58:49;;;;;;;1.10;1.10;;;;;;;;;;5073639;28;20829;-78
2021/12/01 08:01:16;;;;;;;1.20;1.20;;;;;;;;;;5077101;28;20447;-81
2021/12/01 08:03:43;;;;;;;1.30;1.23;;;;;;;;;;5078879;28;20514;-79
2021/12/01 08:06:12;;;;;;;0.93;0.93;;;;;;;;;;5077949;28;20428;-80
2021/12/01 08:08:39;;;;;;;1.07;1.07;;;;;;;;;;5078115;28;20500;-78
2021/12/01 08:11:06;;;;;;;4.63;4.00;;;;;;;;;;5078270;28;20484;-80
2021/12/01 08:13:33;;;;;;;4.40;3.40;;;;;;;;;;5077612;28;20469;-78
2021/12/01 08:16:00;;;;;;;1.73;1.60;;;;;;;;;;5079249;28;20445;-80
2021/12/01 08:18:27;;;;;;;2.00;1.20;;;;;;;;;;5078007;28;20829;-79
2021/12/01 08:20:54;;;;;;;1.20;1.20;;;;;;;;;;5079505;28;20437;-78
2021/12/01 08:23:23;;;;;;;1.10;1.10;;;;;;;;;;5077037;28;20459;-78
2021/12/01 08:25:50;;;;;;;1.20;0.97;;;;;;;;;;5077739;28;20441;-76
2021/12/01 08:28:17;;;;;;;1.20;1.10;;;;;;;;;;5077798;28;20453;-79
2021/12/01 08:30:44;;;;;;;0.97;0.97;;;;;;;;;;5078024;28;20477;-77
2021/12/01 08:33:11;;;;;;;1.20;1.10;;;;;;;;;;5078520;28;20440;-80
2021/12/01 08:35:38;;;;;;;0.93;0.93;;;;;;;;;;5077365;28;20444;-78
2021/12/01 08:38:05;;;;;;;1.00;0.90;;;;;;;;;;5078647;28;20445;-80
2021/12/01 08:40:34;;;;;;;1.07;0.90;;;;;;;;;;5078902;28;20448;-78
2021/12/01 08:43:01;;;;;;;0.80;0.80;;;;;;;;;;5078271;28;20444;-78
2021/12/01 08:45:28;;;;;;;4.07;3.67;;;;;;;;;;5077018;28;20465;-78
2021/12/01 08:47:55;;;;;;;1.53;0.93;;;;;;;;;;5077652;28;20437;-79
2021/12/01 08:50:22;;;;;;;2.23;1.20;;;;;;;;;;5079338;28;20991;-78
2021/12/01 08:52:49;;;;;;;1.20;1.20;;;;;;;;;;5079640;28;20469;-78
2021/12/01 08:55:17;;;;;;;1.03;1.03;;;;;;;;;;5078586;28;20472;-77
2021/12/01 08:57:45;;;;;;;0.83;0.83;;;;;;;;;;5078551;28;20449;-79
2021/12/01 09:00:13;;;;;;;0.90;0.90;;;;;;;;;;5078068;28;20441;-78
2021/12/01 09:02:40;;;;;;;0.80;0.80;;;;;;;;;;5061730;28;20995;-78
2021/12/01 09:05:07;;;;;;;0.70;0.70;;;;;;;;;;5058807;28;20482;-79
2021/12/01 09:07:34;;;;;;;0.83;0.83;;;;;;;;;;5057362;28;20441;-78
2021/12/01 09:10:01;;;;;;;0.77;0.77;;;;;;;;;;5056924;28;20477;-79
2021/12/01 09:12:28;;;;;;;0.67;0.67;;;;;;;;;;5057448;28;20456;-77
2021/12/01 09:14:57;;;;;;;1.20;1.20;;;;;;;;;;5058314;28;20496;-76
2021/12/01 09:17:25;;;;;;;0.90;0.87;;;;;;;;;;5058203;28;20522;-79
2021/12/01 09:19:52;;;;;;;0.80;0.80;;;;;;;;;;5057696;28;20442;-79
2021/12/01 09:22:20;;;;;;;0.90;0.90;;;;;;;;;;5056356;28;20446;-77
2021/12/01 09:24:47;;;;;;;1.77;0.60;;;;;;;;;;5056781;28;20456;-78
2021/12/01 09:27:15;;;;;;;1.60;0.77;;;;;;;;;;5056732;28;20933;-80
2021/12/01 09:29:42;;;;;;;0.80;0.80;;;;;;;;;;5056932;28;20485;-78
2021/12/01 09:32:12;;;;;;;0.60;0.60;;;;;;;;;;5058017;28;20446;-80
2021/12/01 09:34:40;;;;;;;0.80;0.80;;;;;;;;;;5057870;28;20466;-80
2021/12/01 09:37:07;;;;;;;0.77;0.77;;;;;;;;;;5058516;28;20518;-78
2021/12/01 09:39:34;;;;;;;0.70;0.70;;;;;;;;;;5057798;28;20477;-80
2021/12/01 09:42:02;;;;;;;0.67;0.67;;;;;;;;;;5057844;28;20450;-80
2021/12/01 09:44:30;;;;;;;1.90;0.63;;;;;;;;;;5057577;28;20466;-80
2021/12/01 09:46:57;;;;;;;1.00;1.00;;;;;;;;;;5061367;28;20540;-81
2021/12/01 09:49:26;;;;;;;0.50;0.50;;;;;;;;;;5074185;28;20441;-80
2021/12/01 09:51:53;;;;;;;0.50;0.50;;;;;;;;;;5071762;28;20855;-79
2021/12/01 09:54:20;;;;;;;0.80;0.80;;;;;;;;;;5068497;28;20520;-79
2021/12/01 09:56:47;;;;;;;0.70;0.70;;;;;;;;;;5078499;28;20498;-79
2021/12/01 09:59:14;;;;;;;1.30;1.10;;;;;;;;;;5081969;28;20455;-77
2021/12/01 10:01:41;;;;;;;1.23;0.80;;;;;;;;;;5096972;28;20534;-75
2021/12/01 10:04:09;;;;;;;1.23;0.60;;;;;;;;;;5080495;28;20453;-79
2021/12/01 10:06:37;;;;;;;1.07;0.90;;;;;;;;;;5077338;28;20447;-79
2021/12/01 10:09:07;;;;;;;1.00;0.70;;;;;;;;;;5076956;28;20527;-78
2021/12/01 10:11:35;;;;;;;0.73;0.73;;;;;;;;;;5076350;28;20556;-79
2021/12/01 10:14:03;;;;;;;1.00;1.00;;;;;;;;;;5076686;28;20473;-78
2021/12/01 10:16:32;;;;;;;0.80;0.80;;;;;;;;;;5076328;28;20477;-79
2021/12/01 10:19:00;;;;;;;1.23;0.70;;;;;;;;;;5076388;28;20456;-80
2021/12/01 10:21:32;;;;;;;0.90;0.90;;;;;;;;;;5078071;28;20451;-80
2021/12/01 10:24:03;;;;;;;0.90;0.90;;;;;;;;;;5087587;28;20466;-77
2021/12/01 10:26:31;;;;;;;1.07;1.07;;;;;;;;;;5093492;28;20568;-78
2021/12/01 10:28:59;;;;;;;0.63;0.60;;;;;;;;;;5080995;28;20453;-79
2021/12/01 10:31:34;;;;;;;0.87;0.87;;;;;;;;;;5087582;28;20504;-76
2021/12/01 10:34:14;;;;;;;0.60;0.60;;;;;;;;;;5093034;28;20458;-76
2021/12/01 10:36:41;;;;;;;0.97;0.97;;;;;;;;;;5085709;28;20451;-80
2021/12/01 10:39:10;;;;;;;1.13;1.03;;;;;;;;;;5077168;28;20452;-78
2021/12/01 10:41:38;;;;;;;0.60;0.60;;;;;;;;;;5076698;28;20440;-79
2021/12/01 10:44:09;;;;;;;0.57;0.57;;;;;;;;;;5077051;28;20463;-80
2021/12/01 10:46:43;;;;;;;0.80;0.80;;;;;;;;;;5076947;28;20923;-78
2021/12/01 10:49:10;;;;;;;0.80;0.60;;;;;;;;;;5077862;28;20451;-80
2021/12/01 10:51:38;;;;;;;1.17;0.80;;;;;;;;;;5076010;28;20554;-79
2021/12/01 10:54:06;;;;;;;0.70;0.70;;;;;;;;;;5077080;28;20485;-79
2021/12/01 10:56:36;;;;;;;1.53;1.10;;;;;;;;;;5076673;28;20453;-80
2021/12/01 10:59:10;;;;;;;0.87;0.87;;;;;;;;;;5076182;28;20497;-78
2021/12/01 11:01:38;;;;;;;0.80;0.80;;;;;;;;;;5069862;28;20492;-81
2021/12/01 11:04:05;;;;;;;0.87;0.87;;;;;;;;;;5055938;28;20471;-79
2021/12/01 11:06:34;;;;;;;0.80;0.80;;;;;;;;;;5055926;28;20500;-80
2021/12/01 11:09:02;;;;;;;1.07;0.70;;;;;;;;;;5055439;28;20470;-80
2021/12/01 11:11:38;;;;;;;0.73;0.73;;;;;;;;;;5056838;28;20476;-79
2021/12/01 11:14:10;;;;;;;1.07;0.70;;;;;;;;;;5057067;28;20456;-79
2021/12/01 11:16:38;;;;;;;1.33;0.90;;;;;;;;;;5055666;28;20440;-80
2021/12/01 11:19:05;;;;;;;0.70;0.70;;;;;;;;;;5056027;28;20459;-80
2021/12/01 11:21:32;;;;;;;2.60;0.83;;;;;;;;;;5056529;28;20455;-80
2021/12/01 11:24:00;;;;;;;0.60;0.50;;;;;;;;;;5056690;28;20521;-79
2021/12/01 11:26:29;;;;;;;0.60;0.60;;;;;;;;;;5056175;28;20454;-77
2021/12/01 11:29:02;;;;;;;3.57;0.70;;;;;;;;;;5056547;28;20451;-80
2021/12/01 11:31:30;;;;;;;1.67;0.77;;;;;;;;;;5056617;28;20479;-78
2021/12/01 11:33:58;;;;;;;1.10;1.00;;;;;;;;;;5056858;28;20480;-78
2021/12/01 11:36:26;;;;;;;0.67;0.67;;;;;;;;;;5056479;28;20510;-80
2021/12/01 11:38:54;;;;;;;0.83;0.83;;;;;;;;;;5058128;28;20487;-78
2021/12/01 11:41:22;;;;;;;0.83;0.83;;;;;;;;;;5059769;28;20498;-79
2021/12/01 11:43:49;;;;;;;1.03;0.90;;;;;;;;;;5061978;28;20465;-80
2021/12/01 11:46:18;;;;;;;0.80;0.80;;;;;;;;;;5060939;28;20572;-79
2021/12/01 11:48:47;;;;;;;0.83;0.83;;;;;;;;;;5057919;28;20858;-80
2021/12/01 11:51:17;;;;;;;0.70;0.70;;;;;;;;;;5057985;28;20485;-79
2021/12/01 11:53:45;;;;;;;1.00;1.00;;;;;;;;;;5057922;28;20840;-79
2021/12/01 11:56:18;;;;;;;0.73;0.73;;;;;;;;;;5056222;28;20448;-78
2021/12/01 11:58:52;;;;;;;0.60;0.60;;;;;;;;;;5057771;28;20499;-80
2021/12/01 12:01:38;;;;;;;1.60;1.50;;;;;;;;;;5058015;28;20835;-79
2021/12/01 12:04:26;;;;;;;0.70;0.70;;;;;;;;;;5058580;28;20457;-79
2021/12/01 12:06:54;;;;;;;0.90;0.90;;;;;;;;;;5059952;28;20433;-78
2021/12/01 12:09:22;;;;;;;1.07;0.87;;;;;;;;;;5060704;28;20449;-78
2021/12/01 12:11:51;;;;;;;0.77;0.77;;;;;;;;;;5061111;28;20472;-80
2021/12/01 12:14:19;;;;;;;0.90;0.90;;;;;;;;;;5059505;28;20480;-80
2021/12/01 12:17:01;;;;;;;0.87;0.87;;;;;;;;;;5059806;28;20434;-79
2021/12/01 12:19:42;;;;;;;0.90;0.90;;;;;;;;;;5058594;28;20445;-81
2021/12/01 12:22:11;;;;;;;0.83;0.83;;;;;;;;;;5059136;28;20444;-79
2021/12/01 12:24:43;;;;;;;1.10;1.10;;;;;;;;;;5059758;28;20524;-80
2021/12/01 12:27:30;;;;;;;1.07;1.07;;;;;;;;;;5060080;28;20442;-78
2021/12/01 12:29:59;;;;;;;1.07;1.00;;;;;;;;;;5058484;28;20422;-79
2021/12/01 12:32:29;;;;;;;0.87;0.87;;;;;;;;;;5059813;28;20996;-78
2021/12/01 12:34:57;;;;;;;0.80;0.80;;;;;;;;;;5061699;28;20473;-79
2021/12/01 12:37:27;;;;;;;1.00;1.00;;;;;;;;;;5063337;28;20430;-81
2021/12/01 12:39:56;;;;;;;1.10;1.10;;;;;;;;;;5061238;28;20545;-80
2021/12/01 12:42:23;;;;;;;1.90;1.20;;;;;;;;;;5056698;28;20801;-80
2021/12/01 12:44:51;;;;;;;1.00;1.00;;;;;;;;;;5058339;28;20983;-80
2021/12/01 12:47:22;;;;;;;3.67;1.50;;;;;;;;;;5058309;28;20468;-79
2021/12/01 12:49:50;;;;;;;1.40;1.30;;;;;;;;;;5057740;28;20849;-80
2021/12/01 12:52:37;;;;;;;1.53;1.03;;;;;;;;;;5057317;28;20483;-79
2021/12/01 12:55:07;;;;;;;1.10;1.10;;;;;;;;;;5057145;28;20988;-79
2021/12/01 12:57:52;;;;;;;1.43;1.33;;;;;;;;;;5057531;28;20453;-81
2021/12/01 13:00:21;;;;;;;1.00;1.00;;;;;;;;;;5057781;28;20437;-79
2021/12/01 13:02:49;;;;;;;1.40;1.40;;;;;;;;;;5073469;28;20844;-78
2021/12/01 13:05:16;;;;;;;1.40;1.23;;;;;;;;;;5077138;28;20502;-79
2021/12/01 13:07:49;;;;;;;1.17;1.17;;;;;;;;;;5077147;28;20448;-79
2021/12/01 13:10:21;;;;;;;1.43;1.33;;;;;;;;;;5068692;28;20473;-80
2021/12/01 13:12:50;;;;;;;1.20;1.20;;;;;;;;;;5075920;28;20850;-79
2021/12/01 13:15:21;;;;;;;1.30;1.20;;;;;;;;;;5068358;28;20456;-80
2021/12/01 13:17:48;;;;;;;1.60;1.50;;;;;;;;;;5076743;28;20451;-79
2021/12/01 13:20:17;;;;;;;1.30;1.30;;;;;;;;;;5073235;28;20453;-82
2021/12/01 13:22:59;;;;;;;1.47;1.37;;;;;;;;;;5063431;28;20871;-78
2021/12/01 13:25:26;;;;;;;2.30;1.40;;;;;;;;;;5061116;28;20516;-78
2021/12/01 13:27:53;;;;;;;1.10;1.00;;;;;;;;;;5070012;28;20440;-79
2021/12/01 13:30:21;;;;;;;2.10;1.00;;;;;;;;;;5068583;28;20443;-80
2021/12/01 13:33:02;;;;;;;1.10;1.10;;;;;;;;;;5072840;28;20531;-79
2021/12/01 13:35:30;;;;;;;1.10;1.10;;;;;;;;;;5068468;28;20464;-79
2021/12/01 13:37:58;;;;;;;0.93;0.93;;;;;;;;;;5076402;28;20443;-80
2021/12/01 13:40:27;;;;;;;0.80;0.80;;;;;;;;;;5076304;28;20443;-78
2021/12/01 13:42:54;;;;;;;1.47;1.37;;;;;;;;;;5076576;28;20432;-81
2021/12/01 13:45:24;;;;;;;1.10;1.10;;;;;;;;;;5076682;28;20464;-78
2021/12/01 13:47:51;;;;;;;0.90;0.90;;;;;;;;;;5076294;28;20452;-79
2021/12/01 13:50:19;;;;;;;0.80;0.80;;;;;;;;;;5075885;28;20440;-80
2021/12/01 13:52:49;;;;;;;1.10;0.87;;;;;;;;;;5076792;28;20537;-80
2021/12/01 13:55:20;;;;;;;1.03;1.03;;;;;;;;;;5080001;28;20474;-77
2021/12/01 13:57:47;;;;;;;1.70;0.90;;;;;;;;;;5087641;28;20506;-78
2021/12/01 14:00:14;;;;;;;1.90;1.20;;;;;;;;;;5082427;28;20448;-79
2021/12/01 14:02:42;;;;;;;1.53;1.33;;;;;;;;;;5080039;28;20446;-77
2021/12/01 14:05:10;;;;;;;1.00;1.00;;;;;;;;;;5086733;28;20521;-78
2021/12/01 14:07:45;;;;;;;0.90;0.90;;;;;;;;;;5085556;28;20497;-78
2021/12/01 14:10:27;;;;;;;2.83;1.10;;;;;;;;;;5077152;28;20456;-80
2021/12/01 14:12:57;;;;;;;1.60;1.10;;;;;;;;;;5042923;28;20829;-79
2021/12/01 14:15:26;;;;;;;1.10;1.10;;;;;;;;;;5072674;28;20478;-80
2021/12/01 14:17:54;;;;;;;0.80;0.80;;;;;;;;;;5081423;28;20442;-78
2021/12/01 14:20:22;;;;;;;0.80;0.80;;;;;;;;;;5087161;28;20439;-76
2021/12/01 14:22:49;;;;;;;5.90;0.83;;;;;;;;;;5096640;28;20507;-76
2021/12/01 14:25:20;;;;;;;0.93;0.93;;;;;;;;;;5097059;28;20484;-75
2021/12/01 14:27:47;;;;;;;0.80;0.80;;;;;;;;;;5096869;28;20445;-76
2021/12/01 14:30:17;;;;;;;0.70;0.70;;;;;;;;;;5097035;28;20470;-75
2021/12/01 14:32:46;;;;;;;0.77;0.73;;;;;;;;;;5096957;28;20471;-75
2021/12/01 14:35:13;;;;;;;0.90;0.90;;;;;;;;;;5096669;28;20509;-75
2021/12/01 14:37:40;;;;;;;0.60;0.60;;;;;;;;;;5097262;28;20440;-77
2021/12/01 14:40:09;;;;;;;0.80;0.80;;;;;;;;;;5097096;28;20435;-77
2021/12/01 14:42:40;;;;;;;2.53;1.50;;;;;;;;;;5077290;28;20776;-79
2021/12/01 14:45:08;;;;;;;0.80;0.80;;;;;;;;;;5073267;28;20472;-78
2021/12/01 14:47:37;;;;;;;0.80;0.80;;;;;;;;;;5073072;28;20443;-77
2021/12/01 14:50:04;;;;;;;0.70;0.70;;;;;;;;;;5073062;28;20444;-77
2021/12/01 14:52:34;;;;;;;0.80;0.80;;;;;;;;;;5073018;28;20485;-80
2021/12/01 14:55:04;;;;;;;1.00;1.00;;;;;;;;;;5071566;28;20465;-77
2021/12/01 14:57:32;;;;;;;0.77;0.77;;;;;;;;;;5066808;28;20480;-81